createdAt,value
2018-04-01T00:00:19.140Z,975.97
2018-04-01T00:01:19.062Z,975.99
2018-04-01T00:02:18.983Z,976.01
2018-04-01T00:03:18.906Z,976.03
2018-04-01T00:04:18.828Z,976.04
2018-04-01T00:05:18.751Z,976.05
2018-04-01T00:06:18.673Z,976.03
2018-04-01T00:07:18.595Z,976.03
2018-04-01T00:08:18.515Z,976.07
2018-04-01T00:09:18.436Z,976.07
2018-04-01T00:10:18.358Z,976.05
2018-04-01T00:11:18.281Z,976.03
2018-04-01T00:12:18.203Z,975.98
2018-04-01T00:13:18.124Z,975.99
2018-04-01T00:14:18.046Z,976.02
2018-04-01T00:15:17.977Z,975.95
2018-04-01T00:16:17.895Z,976.01
2018-04-01T00:17:17.812Z,976.02
2018-04-01T00:18:17.735Z,975.99
2018-04-01T00:19:17.658Z,976.02
2018-04-01T00:20:17.579Z,976.06
2018-04-01T00:21:17.500Z,976.08
2018-04-01T00:22:17.422Z,976.03
2018-04-01T00:23:17.345Z,976.07
2018-04-01T00:24:17.267Z,976.09
2018-04-01T00:25:17.188Z,976.12
2018-04-01T00:26:17.110Z,976.09
2018-04-01T00:27:17.033Z,976.09
2018-04-01T00:28:16.957Z,976.09
2018-04-01T00:29:16.876Z,976.10
2018-04-01T00:30:16.798Z,976.06
2018-04-01T00:31:16.721Z,976.10
2018-04-01T00:32:16.648Z,976.11
2018-04-01T00:33:16.564Z,976.11
2018-04-01T00:34:16.485Z,976.10
2018-04-01T00:35:16.408Z,976.11
2018-04-01T00:36:16.329Z,976.09
2018-04-01T00:37:16.251Z,976.09
2018-04-01T00:38:16.173Z,976.11
2018-04-01T00:39:16.094Z,976.14
2018-04-01T00:40:16.017Z,976.15
2018-04-01T00:41:15.940Z,976.17
2018-04-01T00:42:15.861Z,976.19
2018-04-01T00:43:15.782Z,976.18
2018-04-01T00:44:15.709Z,976.19
2018-04-01T00:45:15.625Z,976.24
2018-04-01T00:46:15.548Z,976.22
2018-04-01T00:47:15.469Z,976.23
2018-04-01T00:48:15.391Z,976.21
2018-04-01T00:49:15.313Z,976.21
2018-04-01T00:50:15.233Z,976.26
2018-04-01T00:51:15.157Z,976.24
2018-04-01T00:52:15.078Z,976.19
2018-04-01T00:53:14.999Z,976.22
2018-04-01T00:54:14.925Z,976.30
2018-04-01T00:55:14.842Z,976.26
2018-04-01T00:56:14.766Z,976.28
2018-04-01T00:57:14.685Z,976.28
2018-04-01T00:58:14.608Z,976.30
2018-04-01T00:59:14.536Z,976.30
2018-04-01T01:00:14.452Z,976.26
2018-04-01T01:01:14.372Z,976.29
2018-04-01T01:02:14.295Z,976.28
2018-04-01T01:03:14.216Z,976.26
2018-04-01T01:04:14.138Z,976.28
2018-04-01T01:05:14.059Z,976.29
2018-04-01T01:06:13.981Z,976.33
2018-04-01T01:07:13.904Z,976.25
2018-04-01T01:08:13.826Z,976.26
2018-04-01T01:09:13.747Z,976.32
2018-04-01T01:10:13.669Z,976.34
2018-04-01T01:11:13.591Z,976.33
2018-04-01T01:12:13.513Z,976.36
2018-04-01T01:13:13.440Z,976.37
2018-04-01T01:14:13.356Z,976.37
2018-04-01T01:15:13.279Z,976.40
2018-04-01T01:16:13.201Z,976.35
2018-04-01T01:17:13.122Z,976.37
2018-04-01T01:18:13.045Z,976.40
2018-04-01T01:19:12.966Z,976.42
2018-04-01T01:20:12.894Z,976.42
2018-04-01T01:21:12.808Z,976.46
2018-04-01T01:22:12.732Z,976.45
2018-04-01T01:23:12.654Z,976.47
2018-04-01T01:24:12.576Z,976.46
2018-04-01T01:25:12.497Z,976.45
2018-04-01T01:26:12.419Z,976.45
2018-04-01T01:27:12.344Z,976.44
2018-04-01T01:28:12.264Z,976.44
2018-04-01T01:29:12.185Z,976.45
2018-04-01T01:30:12.107Z,976.43
2018-04-01T01:31:12.030Z,976.45
2018-04-01T01:32:11.952Z,976.48
2018-04-01T01:33:11.873Z,976.46
2018-04-01T01:34:11.795Z,976.45
2018-04-01T01:35:11.717Z,976.50
2018-04-01T01:36:11.645Z,976.50
2018-04-01T01:37:11.560Z,976.47
2018-04-01T01:38:11.482Z,976.46
2018-04-01T01:39:11.404Z,976.52
2018-04-01T01:40:11.325Z,976.54
2018-04-01T01:41:11.247Z,976.52
2018-04-01T01:42:11.169Z,976.54
2018-04-01T01:43:11.092Z,976.57
2018-04-01T01:44:11.014Z,976.58
2018-04-01T01:45:10.935Z,976.57
2018-04-01T01:46:10.858Z,976.56
2018-04-01T01:47:10.778Z,976.55
2018-04-01T01:48:10.702Z,976.58
2018-04-01T01:49:10.623Z,976.60
2018-04-01T01:50:10.545Z,976.58
2018-04-01T01:51:10.467Z,976.59
2018-04-01T01:52:10.390Z,976.60
2018-04-01T01:53:10.312Z,976.66
2018-04-01T01:54:10.233Z,976.64
2018-04-01T01:55:10.155Z,976.66
2018-04-01T01:56:10.078Z,976.65
2018-04-01T01:57:10.000Z,976.64
2018-04-01T01:58:09.922Z,976.72
2018-04-01T01:59:09.844Z,976.75
2018-04-01T02:00:09.766Z,976.74
2018-04-01T02:01:09.688Z,976.78
2018-04-01T02:02:09.611Z,976.80
2018-04-01T02:03:09.532Z,976.79
2018-04-01T02:04:09.455Z,976.87
2018-04-01T02:05:09.378Z,976.90
2018-04-01T02:06:09.297Z,976.88
2018-04-01T02:07:09.221Z,976.89
2018-04-01T02:08:09.144Z,976.90
2018-04-01T02:09:09.065Z,976.89
2018-04-01T02:10:08.988Z,976.92
2018-04-01T02:11:08.909Z,976.88
2018-04-01T02:12:08.832Z,976.86
2018-04-01T02:13:08.753Z,976.94
2018-04-01T02:14:08.678Z,976.91
2018-04-01T02:15:08.598Z,976.94
2018-04-01T02:16:08.519Z,976.96
2018-04-01T02:17:08.441Z,976.98
2018-04-01T02:18:08.363Z,976.97
2018-04-01T02:19:08.285Z,977.03
2018-04-01T02:20:08.211Z,977.01
2018-04-01T02:21:08.127Z,976.97
2018-04-01T02:22:08.051Z,977.05
2018-04-01T02:23:07.973Z,977.01
2018-04-01T02:24:07.894Z,976.97
2018-04-01T02:25:07.814Z,977.01
2018-04-01T02:26:07.736Z,976.99
2018-04-01T02:27:07.658Z,977.00
2018-04-01T02:28:07.580Z,977.00
2018-04-01T02:29:07.501Z,977.00
2018-04-01T02:30:07.425Z,977.00
2018-04-01T02:31:07.346Z,977.02
2018-04-01T02:32:07.267Z,976.99
2018-04-01T02:33:07.189Z,977.05
2018-04-01T02:34:07.111Z,977.03
2018-04-01T02:35:07.032Z,977.06
2018-04-01T02:36:06.953Z,977.04
2018-04-01T02:37:06.874Z,977.06
2018-04-01T02:38:06.798Z,977.03
2018-04-01T02:39:06.717Z,977.06
2018-04-01T02:40:06.644Z,977.04
2018-04-01T02:41:06.560Z,977.08
2018-04-01T02:42:06.484Z,977.09
2018-04-01T02:43:06.404Z,977.11
2018-04-01T02:44:06.331Z,977.12
2018-04-01T02:45:06.247Z,977.16
2018-04-01T02:46:06.172Z,977.17
2018-04-01T02:47:06.090Z,977.13
2018-04-01T02:48:06.013Z,977.16
2018-04-01T02:49:05.934Z,977.19
2018-04-01T02:50:05.862Z,977.17
2018-04-01T02:51:05.777Z,977.17
2018-04-01T02:52:05.698Z,977.15
2018-04-01T02:53:05.619Z,977.19
2018-04-01T02:54:05.544Z,977.15
2018-04-01T02:55:05.463Z,977.17
2018-04-01T02:56:05.389Z,977.20
2018-04-01T02:57:05.306Z,977.19
2018-04-01T02:58:05.228Z,977.16
2018-04-01T02:59:05.150Z,977.18
2018-04-01T03:00:05.087Z,977.21
2018-04-01T03:01:04.991Z,977.16
2018-04-01T03:02:04.914Z,977.14
2018-04-01T03:03:04.837Z,977.17
2018-04-01T03:04:04.758Z,977.18
2018-04-01T03:05:04.978Z,977.25
2018-04-01T03:06:04.600Z,977.20
2018-04-01T03:07:04.526Z,977.23
2018-04-01T03:08:04.444Z,977.28
2018-04-01T03:09:04.365Z,977.27
2018-04-01T03:10:04.287Z,977.33
2018-04-01T03:11:04.238Z,977.30
2018-04-01T03:12:04.129Z,977.31
2018-04-01T03:13:04.050Z,977.23
2018-04-01T03:14:03.973Z,977.28
2018-04-01T03:15:03.893Z,977.25
2018-04-01T03:16:03.814Z,977.29
2018-04-01T03:17:03.735Z,977.28
2018-04-01T03:18:03.657Z,977.31
2018-04-01T03:19:03.581Z,977.33
2018-04-01T03:20:03.501Z,977.32
2018-04-01T03:21:03.422Z,977.29
2018-04-01T03:22:03.343Z,977.30
2018-04-01T03:23:03.264Z,977.29
2018-04-01T03:24:03.186Z,977.33
2018-04-01T03:25:03.107Z,977.33
2018-04-01T03:26:03.028Z,977.34
2018-04-01T03:27:02.950Z,977.34
2018-04-01T03:28:02.871Z,977.36
2018-04-01T03:29:02.792Z,977.41
2018-04-01T03:30:02.721Z,977.41
2018-04-01T03:31:02.634Z,977.38
2018-04-01T03:32:02.557Z,977.41
2018-04-01T03:33:02.476Z,977.45
2018-04-01T03:34:02.398Z,977.43
2018-04-01T03:35:02.319Z,977.46
2018-04-01T03:36:02.240Z,977.47
2018-04-01T03:37:02.161Z,977.51
2018-04-01T03:38:02.081Z,977.50
2018-04-01T03:39:02.004Z,977.54
2018-04-01T03:40:01.925Z,977.51
2018-04-01T03:41:01.850Z,977.52
2018-04-01T03:42:01.766Z,977.56
2018-04-01T03:43:01.686Z,977.51
2018-04-01T03:44:01.609Z,977.48
2018-04-01T03:45:01.528Z,977.46
2018-04-01T03:46:01.449Z,977.53
2018-04-01T03:47:01.375Z,977.50
2018-04-01T03:48:01.292Z,977.49
2018-04-01T03:49:01.212Z,977.50
2018-04-01T03:50:01.134Z,977.54
2018-04-01T03:51:01.054Z,977.54
2018-04-01T03:52:00.975Z,977.55
2018-04-01T03:53:00.896Z,977.53
2018-04-01T03:54:00.817Z,977.53
2018-04-01T03:55:00.737Z,977.53
2018-04-01T03:56:00.659Z,977.53
2018-04-01T03:57:00.580Z,977.57
2018-04-01T03:58:00.501Z,977.52
2018-04-01T03:59:00.422Z,977.60
2018-04-01T04:00:00.342Z,977.58
2018-04-01T04:01:00.263Z,977.57
2018-04-01T04:02:00.183Z,977.59
2018-04-01T04:03:00.106Z,977.61
2018-04-01T04:04:00.028Z,977.61
2018-04-01T04:04:59.946Z,977.62
2018-04-01T04:05:59.868Z,977.62
2018-04-01T04:06:59.788Z,977.62
2018-04-01T04:07:59.710Z,977.63
2018-04-01T04:08:59.631Z,977.61
2018-04-01T04:09:59.550Z,977.69
2018-04-01T04:10:59.472Z,977.71
2018-04-01T04:11:59.392Z,977.66
2018-04-01T04:12:59.313Z,977.65
2018-04-01T04:13:59.234Z,977.66
2018-04-01T04:14:59.158Z,977.69
2018-04-01T04:15:59.076Z,977.71
2018-04-01T04:16:58.996Z,977.72
2018-04-01T04:17:58.918Z,977.70
2018-04-01T04:18:58.839Z,977.70
2018-04-01T04:19:58.760Z,977.73
2018-04-01T04:20:58.679Z,977.73
2018-04-01T04:21:58.751Z,977.75
2018-04-01T04:22:58.521Z,977.75
2018-04-01T04:23:58.446Z,977.77
2018-04-01T04:24:58.362Z,977.79
2018-04-01T04:25:58.283Z,977.79
2018-04-01T04:26:58.205Z,977.80
2018-04-01T04:27:58.127Z,977.82
2018-04-01T04:28:58.046Z,977.84
2018-04-01T04:29:57.966Z,977.82
2018-04-01T04:30:57.886Z,977.88
2018-04-01T04:31:57.817Z,977.84
2018-04-01T04:32:57.728Z,977.86
2018-04-01T04:33:57.648Z,977.86
2018-04-01T04:34:57.570Z,977.95
2018-04-01T04:35:57.491Z,977.89
2018-04-01T04:36:57.412Z,977.92
2018-04-01T04:37:57.337Z,977.90
2018-04-01T04:38:57.253Z,977.91
2018-04-01T04:39:57.173Z,977.98
2018-04-01T04:40:57.093Z,978.00
2018-04-01T04:41:57.014Z,977.98
2018-04-01T04:42:56.935Z,978.01
2018-04-01T04:43:56.855Z,977.96
2018-04-01T04:44:56.776Z,978.01
2018-04-01T04:45:56.697Z,977.97
2018-04-01T04:46:56.619Z,978.02
2018-04-01T04:47:56.549Z,978.03
2018-04-01T04:48:56.458Z,978.05
2018-04-01T04:49:56.379Z,978.09
2018-04-01T04:50:56.301Z,978.08
2018-04-01T04:51:56.228Z,978.08
2018-04-01T04:52:56.141Z,978.07
2018-04-01T04:53:56.064Z,978.06
2018-04-01T04:54:55.985Z,978.10
2018-04-01T04:55:55.905Z,978.09
2018-04-01T04:56:55.825Z,978.11
2018-04-01T04:57:55.746Z,978.13
2018-04-01T04:58:55.672Z,978.14
2018-04-01T04:59:55.588Z,978.14
2018-04-01T05:00:55.508Z,978.14
2018-04-01T05:01:55.429Z,978.15
2018-04-01T05:02:55.351Z,978.19
2018-04-01T05:03:55.271Z,978.19
2018-04-01T05:04:55.192Z,978.22
2018-04-01T05:05:55.112Z,978.24
2018-04-01T05:06:55.033Z,978.25
2018-04-01T05:07:54.953Z,978.18
2018-04-01T05:08:54.874Z,978.20
2018-04-01T05:09:54.795Z,978.24
2018-04-01T05:10:54.717Z,978.22
2018-04-01T05:11:54.638Z,978.19
2018-04-01T05:12:54.557Z,978.26
2018-04-01T05:13:54.478Z,978.25
2018-04-01T05:14:54.400Z,978.24
2018-04-01T05:15:54.321Z,978.25
2018-04-01T05:16:54.241Z,978.30
2018-04-01T05:17:54.161Z,978.26
2018-04-01T05:18:54.084Z,978.23
2018-04-01T05:19:54.004Z,978.26
2018-04-01T05:20:53.924Z,978.25
2018-04-01T05:21:53.844Z,978.32
2018-04-01T05:22:53.765Z,978.29
2018-04-01T05:23:53.685Z,978.30
2018-04-01T05:24:53.607Z,978.31
2018-04-01T05:25:53.527Z,978.43
2018-04-01T05:26:53.448Z,978.34
2018-04-01T05:27:53.370Z,978.39
2018-04-01T05:28:53.288Z,978.34
2018-04-01T05:29:53.209Z,978.37
2018-04-01T05:30:53.130Z,978.39
2018-04-01T05:31:53.050Z,978.43
2018-04-01T05:32:52.970Z,978.51
2018-04-01T05:33:52.890Z,978.40
2018-04-01T05:34:52.811Z,978.52
2018-04-01T05:35:52.732Z,978.50
2018-04-01T05:36:52.652Z,978.49
2018-04-01T05:37:52.574Z,978.48
2018-04-01T05:38:52.493Z,978.53
2018-04-01T05:39:52.414Z,978.50
2018-04-01T05:40:52.333Z,978.51
2018-04-01T05:41:52.254Z,978.52
2018-04-01T05:42:52.175Z,978.56
2018-04-01T05:43:52.095Z,978.56
2018-04-01T05:44:52.014Z,978.61
2018-04-01T05:45:51.937Z,978.68
2018-04-01T05:46:51.856Z,978.69
2018-04-01T05:47:51.780Z,978.66
2018-04-01T05:48:51.696Z,978.71
2018-04-01T05:49:51.617Z,978.72
2018-04-01T05:50:51.538Z,978.76
2018-04-01T05:51:51.458Z,978.77
2018-04-01T05:52:51.380Z,978.82
2018-04-01T05:53:51.298Z,978.81
2018-04-01T05:54:51.219Z,978.81
2018-04-01T05:55:51.140Z,978.87
2018-04-01T05:56:51.060Z,978.84
2018-04-01T05:57:50.980Z,978.83
2018-04-01T05:58:50.901Z,978.85
2018-04-01T05:59:50.825Z,978.84
2018-04-01T06:00:50.742Z,978.87
2018-04-01T06:01:50.662Z,978.89
2018-04-01T06:02:50.583Z,978.85
2018-04-01T06:03:50.504Z,978.88
2018-04-01T06:04:50.423Z,978.93
2018-04-01T06:05:50.345Z,978.94
2018-04-01T06:06:50.303Z,978.92
2018-04-01T06:07:50.186Z,978.95
2018-04-01T06:08:50.105Z,978.97
2018-04-01T06:09:50.026Z,979.03
2018-04-01T06:10:49.946Z,979.00
2018-04-01T06:11:49.868Z,979.07
2018-04-01T06:12:49.788Z,979.09
2018-04-01T06:13:49.708Z,979.02
2018-04-01T06:14:49.628Z,979.07
2018-04-01T06:15:49.550Z,979.08
2018-04-01T06:16:49.469Z,979.04
2018-04-01T06:17:49.391Z,979.08
2018-04-01T06:18:49.311Z,979.10
2018-04-01T06:19:49.232Z,979.05
2018-04-01T06:20:49.152Z,979.10
2018-04-01T06:21:49.073Z,979.09
2018-04-01T06:22:48.994Z,979.05
2018-04-01T06:23:48.915Z,979.03
2018-04-01T06:24:48.833Z,979.09
2018-04-01T06:25:48.758Z,979.08
2018-04-01T06:26:48.676Z,979.12
2018-04-01T06:27:48.598Z,979.13
2018-04-01T06:28:48.518Z,979.11
2018-04-01T06:29:48.439Z,979.12
2018-04-01T06:30:48.361Z,979.15
2018-04-01T06:31:48.282Z,979.16
2018-04-01T06:32:48.202Z,979.17
2018-04-01T06:33:48.123Z,979.20
2018-04-01T06:34:48.045Z,979.23
2018-04-01T06:35:47.966Z,979.19
2018-04-01T06:36:47.885Z,979.22
2018-04-01T06:37:47.809Z,979.26
2018-04-01T06:38:47.731Z,979.24
2018-04-01T06:39:47.654Z,979.22
2018-04-01T06:40:47.572Z,979.26
2018-04-01T06:41:47.494Z,979.25
2018-04-01T06:42:47.415Z,979.27
2018-04-01T06:43:47.337Z,979.31
2018-04-01T06:44:47.258Z,979.28
2018-04-01T06:45:47.179Z,979.23
2018-04-01T06:46:47.100Z,979.39
2018-04-01T06:47:47.026Z,979.40
2018-04-01T06:48:46.944Z,979.35
2018-04-01T06:49:46.864Z,979.35
2018-04-01T06:50:46.826Z,979.36
2018-04-01T06:51:46.708Z,979.43
2018-04-01T06:52:46.629Z,979.48
2018-04-01T06:53:46.550Z,979.47
2018-04-01T06:54:46.472Z,979.47
2018-04-01T06:55:46.394Z,979.42
2018-04-01T06:56:46.321Z,979.45
2018-04-01T06:57:46.236Z,979.49
2018-04-01T06:58:46.156Z,979.50
2018-04-01T06:59:46.079Z,979.53
2018-04-01T07:00:46.002Z,979.57
2018-04-01T07:01:45.920Z,979.50
2018-04-01T07:02:45.842Z,979.54
2018-04-01T07:03:45.765Z,979.54
2018-04-01T07:04:45.684Z,979.54
2018-04-01T07:05:45.606Z,979.51
2018-04-01T07:06:45.526Z,979.54
2018-04-01T07:07:45.448Z,979.55
2018-04-01T07:08:45.369Z,979.55
2018-04-01T07:09:45.290Z,979.56
2018-04-01T07:10:45.212Z,979.57
2018-04-01T07:11:45.133Z,979.55
2018-04-01T07:12:45.053Z,979.60
2018-04-01T07:13:44.975Z,979.67
2018-04-01T07:14:44.897Z,979.66
2018-04-01T07:15:44.820Z,979.69
2018-04-01T07:16:44.739Z,979.67
2018-04-01T07:17:44.660Z,979.67
2018-04-01T07:18:44.586Z,979.71
2018-04-01T07:19:44.504Z,979.76
2018-04-01T07:20:44.424Z,979.71
2018-04-01T07:21:44.346Z,979.75
2018-04-01T07:22:44.267Z,979.75
2018-04-01T07:23:44.190Z,979.77
2018-04-01T07:24:44.111Z,979.77
2018-04-01T07:25:44.032Z,979.76
2018-04-01T07:26:43.953Z,979.79
2018-04-01T07:27:43.875Z,979.79
2018-04-01T07:28:43.796Z,979.82
2018-04-01T07:29:43.768Z,979.84
2018-04-01T07:30:43.639Z,979.87
2018-04-01T07:31:43.560Z,979.89
2018-04-01T07:32:43.481Z,979.90
2018-04-01T07:33:43.407Z,979.87
2018-04-01T07:34:43.325Z,979.92
2018-04-01T07:35:43.245Z,979.90
2018-04-01T07:36:43.167Z,979.87
2018-04-01T07:37:43.088Z,979.90
2018-04-01T07:38:43.012Z,979.92
2018-04-01T07:39:42.939Z,979.97
2018-04-01T07:40:42.854Z,979.92
2018-04-01T07:41:42.774Z,979.98
2018-04-01T07:42:42.696Z,980.01
2018-04-01T07:43:42.618Z,980.07
2018-04-01T07:44:42.539Z,980.05
2018-04-01T07:45:42.460Z,980.09
2018-04-01T07:46:42.382Z,980.06
2018-04-01T07:47:42.302Z,980.06
2018-04-01T07:48:42.224Z,980.06
2018-04-01T07:49:42.146Z,980.10
2018-04-01T07:50:42.067Z,980.12
2018-04-01T07:51:41.989Z,980.08
2018-04-01T07:52:41.910Z,980.10
2018-04-01T07:53:41.831Z,980.16
2018-04-01T07:54:41.753Z,980.13
2018-04-01T07:55:41.674Z,980.13
2018-04-01T07:56:41.593Z,980.15
2018-04-01T07:57:41.516Z,980.18
2018-04-01T07:58:41.438Z,980.16
2018-04-01T07:59:41.360Z,980.18
2018-04-01T08:00:41.309Z,980.15
2018-04-01T08:01:41.202Z,980.23
2018-04-01T08:02:41.123Z,980.17
2018-04-01T08:03:41.046Z,980.20
2018-04-01T08:04:40.969Z,980.21
2018-04-01T08:05:40.887Z,980.20
2018-04-01T08:06:40.810Z,980.22
2018-04-01T08:07:40.731Z,980.25
2018-04-01T08:08:40.652Z,980.22
2018-04-01T08:09:40.576Z,980.26
2018-04-01T08:10:40.495Z,980.27
2018-04-01T08:11:40.416Z,980.29
2018-04-01T08:12:40.337Z,980.24
2018-04-01T08:13:40.259Z,980.32
2018-04-01T08:14:40.180Z,980.29
2018-04-01T08:15:40.103Z,980.31
2018-04-01T08:16:40.023Z,980.27
2018-04-01T08:17:39.945Z,980.32
2018-04-01T08:18:39.867Z,980.24
2018-04-01T08:19:39.789Z,980.32
2018-04-01T08:20:39.709Z,980.28
2018-04-01T08:21:39.633Z,980.32
2018-04-01T08:22:39.553Z,980.30
2018-04-01T08:23:39.475Z,980.27
2018-04-01T08:24:39.396Z,980.32
2018-04-01T08:25:39.317Z,980.27
2018-04-01T08:26:39.240Z,980.28
2018-04-01T08:27:39.163Z,980.40
2018-04-01T08:28:39.104Z,980.35
2018-04-01T08:29:39.004Z,980.38
2018-04-01T08:30:38.927Z,980.36
2018-04-01T08:31:38.851Z,980.37
2018-04-01T08:32:38.768Z,980.39
2018-04-01T08:33:38.693Z,980.41
2018-04-01T08:34:38.612Z,980.39
2018-04-01T08:35:38.534Z,980.41
2018-04-01T08:36:38.455Z,980.48
2018-04-01T08:37:38.376Z,980.43
2018-04-01T08:38:38.298Z,980.40
2018-04-01T08:39:38.220Z,980.49
2018-04-01T08:40:38.142Z,980.48
2018-04-01T08:41:38.063Z,980.48
2018-04-01T08:42:37.985Z,980.47
2018-04-01T08:43:37.911Z,980.47
2018-04-01T08:44:37.827Z,980.51
2018-04-01T08:45:37.749Z,980.51
2018-04-01T08:46:37.671Z,980.53
2018-04-01T08:47:37.600Z,980.50
2018-04-01T08:48:37.514Z,980.50
2018-04-01T08:49:37.436Z,980.51
2018-04-01T08:50:37.365Z,980.56
2018-04-01T08:51:37.279Z,980.53
2018-04-01T08:52:37.200Z,980.55
2018-04-01T08:53:37.122Z,980.54
2018-04-01T08:54:37.042Z,980.60
2018-04-01T08:55:36.965Z,980.54
2018-04-01T08:56:36.886Z,980.60
2018-04-01T08:57:36.808Z,980.60
2018-04-01T08:58:36.731Z,980.62
2018-04-01T08:59:36.651Z,980.62
2018-04-01T09:00:36.572Z,980.59
2018-04-01T09:01:36.494Z,980.63
2018-04-01T09:02:36.416Z,980.60
2018-04-01T09:03:36.339Z,980.57
2018-04-01T09:04:36.258Z,980.59
2018-04-01T09:05:36.184Z,980.56
2018-04-01T09:06:36.105Z,980.67
2018-04-01T09:07:36.024Z,980.67
2018-04-01T09:08:35.945Z,980.63
2018-04-01T09:09:35.867Z,980.64
2018-04-01T09:10:35.789Z,980.65
2018-04-01T09:11:35.711Z,980.67
2018-04-01T09:12:35.632Z,980.65
2018-04-01T09:13:35.554Z,980.66
2018-04-01T09:14:35.476Z,980.65
2018-04-01T09:15:35.398Z,980.65
2018-04-01T09:16:35.320Z,980.61
2018-04-01T09:17:35.241Z,980.65
2018-04-01T09:18:35.163Z,980.62
2018-04-01T09:19:35.085Z,980.62
2018-04-01T09:20:35.006Z,980.74
2018-04-01T09:21:34.929Z,980.80
2018-04-01T09:22:34.851Z,980.82
2018-04-01T09:23:34.773Z,980.78
2018-04-01T09:24:34.694Z,980.82
2018-04-01T09:25:34.616Z,980.95
2018-04-01T09:26:34.538Z,980.93
2018-04-01T09:27:34.482Z,980.95
2018-04-01T09:28:34.381Z,980.95
2018-04-01T09:29:34.302Z,980.92
2018-04-01T09:30:34.225Z,980.87
2018-04-01T09:31:34.146Z,980.92
2018-04-01T09:32:34.066Z,980.86
2018-04-01T09:33:33.988Z,980.89
2018-04-01T09:34:33.910Z,980.86
2018-04-01T09:35:33.835Z,980.83
2018-04-01T09:36:33.758Z,980.88
2018-04-01T09:37:33.673Z,980.87
2018-04-01T09:38:33.595Z,980.89
2018-04-01T09:39:33.517Z,980.87
2018-04-01T09:40:33.443Z,980.86
2018-04-01T09:41:33.359Z,980.89
2018-04-01T09:42:33.280Z,980.90
2018-04-01T09:43:33.202Z,980.91
2018-04-01T09:44:33.126Z,980.84
2018-04-01T09:45:33.044Z,980.86
2018-04-01T09:46:32.967Z,980.90
2018-04-01T09:47:32.888Z,980.91
2018-04-01T09:48:32.809Z,980.87
2018-04-01T09:49:32.730Z,980.83
2018-04-01T09:50:32.652Z,980.89
2018-04-01T09:51:32.575Z,980.90
2018-04-01T09:52:32.494Z,980.92
2018-04-01T09:53:32.417Z,980.96
2018-04-01T09:54:32.340Z,980.97
2018-04-01T09:55:32.262Z,980.96
2018-04-01T09:56:32.182Z,980.98
2018-04-01T09:57:32.105Z,980.96
2018-04-01T09:58:32.028Z,980.98
2018-04-01T09:59:31.951Z,981.02
2018-04-01T10:00:31.872Z,980.99
2018-04-01T10:01:31.794Z,980.97
2018-04-01T10:02:31.717Z,981.00
2018-04-01T10:03:31.639Z,981.04
2018-04-01T10:04:31.561Z,980.92
2018-04-01T10:05:31.484Z,980.98
2018-04-01T10:06:31.406Z,981.04
2018-04-01T10:07:31.329Z,980.96
2018-04-01T10:08:31.251Z,980.98
2018-04-01T10:09:31.176Z,980.96
2018-04-01T10:10:31.096Z,981.00
2018-04-01T10:11:31.020Z,980.99
2018-04-01T10:12:30.941Z,981.01
2018-04-01T10:13:30.865Z,981.03
2018-04-01T10:14:30.791Z,981.00
2018-04-01T10:15:30.713Z,980.96
2018-04-01T10:16:30.632Z,980.99
2018-04-01T10:17:30.556Z,981.02
2018-04-01T10:18:30.483Z,981.02
2018-04-01T10:19:30.402Z,981.06
2018-04-01T10:20:30.325Z,981.08
2018-04-01T10:21:30.248Z,981.04
2018-04-01T10:22:30.172Z,981.07
2018-04-01T10:23:30.095Z,981.07
2018-04-01T10:24:30.023Z,981.00
2018-04-01T10:25:29.942Z,981.03
2018-04-01T10:26:29.870Z,981.04
2018-04-01T10:27:29.789Z,980.99
2018-04-01T10:28:29.712Z,980.99
2018-04-01T10:29:29.635Z,981.01
2018-04-01T10:30:29.561Z,980.99
2018-04-01T10:31:29.485Z,981.02
2018-04-01T10:32:29.406Z,981.02
2018-04-01T10:33:29.336Z,981.08
2018-04-01T10:34:29.254Z,981.10
2018-04-01T10:35:29.178Z,981.11
2018-04-01T10:36:29.101Z,981.14
2018-04-01T10:37:29.026Z,981.14
2018-04-01T10:38:28.949Z,981.18
2018-04-01T10:39:28.875Z,981.22
2018-04-01T10:40:28.797Z,981.19
2018-04-01T10:41:28.721Z,981.24
2018-04-01T10:42:28.645Z,981.27
2018-04-01T10:43:28.568Z,981.27
2018-04-01T10:44:28.491Z,981.38
2018-04-01T10:45:28.421Z,981.21
2018-04-01T10:46:28.340Z,981.24
2018-04-01T10:47:28.268Z,981.29
2018-04-01T10:48:28.189Z,981.23
2018-04-01T10:49:28.120Z,981.11
2018-04-01T10:50:28.037Z,981.18
2018-04-01T10:51:27.960Z,981.18
2018-04-01T10:52:27.882Z,981.11
2018-04-01T10:53:27.811Z,981.13
2018-04-01T10:54:27.743Z,981.19
2018-04-01T10:55:27.655Z,981.17
2018-04-01T10:56:27.578Z,981.07
2018-04-01T10:57:27.501Z,981.15
2018-04-01T10:58:27.426Z,981.25
2018-04-01T10:59:27.352Z,981.21
2018-04-01T11:00:27.273Z,981.17
2018-04-01T11:01:27.200Z,981.30
2018-04-01T11:02:27.123Z,981.28
2018-04-01T11:03:27.047Z,981.20
2018-04-01T11:04:26.973Z,981.24
2018-04-01T11:05:26.895Z,981.27
2018-04-01T11:06:26.820Z,981.36
2018-04-01T11:07:26.745Z,981.30
2018-04-01T11:08:26.668Z,981.27
2018-04-01T11:09:26.593Z,981.31
2018-04-01T11:10:26.517Z,981.21
2018-04-01T11:11:26.462Z,981.42
2018-04-01T11:12:26.367Z,981.73
2018-04-01T11:13:26.291Z,981.95
2018-04-01T11:14:26.218Z,981.93
2018-04-01T11:15:26.140Z,982.01
2018-04-01T11:16:26.075Z,982.03
2018-04-01T11:17:25.986Z,982.11
2018-04-01T11:18:25.910Z,982.09
2018-04-01T11:19:25.836Z,982.09
2018-04-01T11:20:25.754Z,982.05
2018-04-01T11:21:25.678Z,982.05
2018-04-01T11:22:25.599Z,982.00
2018-04-01T11:23:25.522Z,981.92
2018-04-01T11:24:25.469Z,981.94
2018-04-01T11:25:25.364Z,981.89
2018-04-01T11:26:25.285Z,981.88
2018-04-01T11:27:25.206Z,981.83
2018-04-01T11:28:25.126Z,981.84
2018-04-01T11:29:25.093Z,981.84
2018-04-01T11:30:24.968Z,981.84
2018-04-01T11:31:24.894Z,981.87
2018-04-01T11:32:24.808Z,981.86
2018-04-01T11:33:24.733Z,981.84
2018-04-01T11:34:24.650Z,981.82
2018-04-01T11:35:24.571Z,981.82
2018-04-01T11:36:24.491Z,981.80
2018-04-01T11:37:24.411Z,981.82
2018-04-01T11:38:24.333Z,981.84
2018-04-01T11:39:24.253Z,981.82
2018-04-01T11:40:24.173Z,981.86
2018-04-01T11:41:24.098Z,981.87
2018-04-01T11:42:24.017Z,981.90
2018-04-01T11:43:23.942Z,981.90
2018-04-01T11:44:23.856Z,981.93
2018-04-01T11:45:23.778Z,981.88
2018-04-01T11:46:23.700Z,981.92
2018-04-01T11:47:23.622Z,981.92
2018-04-01T11:48:23.542Z,981.86
2018-04-01T11:49:23.463Z,981.87
2018-04-01T11:50:23.410Z,981.84
2018-04-01T11:51:23.306Z,981.92
2018-04-01T11:52:23.232Z,981.85
2018-04-01T11:53:23.152Z,981.89
2018-04-01T11:54:23.071Z,981.92
2018-04-01T11:55:22.993Z,981.97
2018-04-01T11:56:22.914Z,981.98
2018-04-01T11:57:22.836Z,981.99
2018-04-01T11:58:22.758Z,981.95
2018-04-01T11:59:22.681Z,982.02
2018-04-01T12:00:22.602Z,982.05
2018-04-01T12:01:22.524Z,982.06
2018-04-01T12:02:22.448Z,982.33
2018-04-01T12:03:22.371Z,982.06
2018-04-01T12:04:22.293Z,982.16
2018-04-01T12:05:22.215Z,982.12
2018-04-01T12:06:22.139Z,982.10
2018-04-01T12:07:22.063Z,982.08
2018-04-01T12:08:21.985Z,982.05
2018-04-01T12:09:21.909Z,982.07
2018-04-01T12:10:21.832Z,982.04
2018-04-01T12:11:21.756Z,982.13
2018-04-01T12:12:21.679Z,982.70
2018-04-01T12:13:21.603Z,982.46
2018-04-01T12:14:21.532Z,983.01
2018-04-01T12:15:21.451Z,982.04
2018-04-01T12:16:21.374Z,981.99
2018-04-01T12:17:21.300Z,981.97
2018-04-01T12:18:21.273Z,982.01
2018-04-01T12:19:21.154Z,981.99
2018-04-01T12:20:21.099Z,981.85
2018-04-01T12:21:21.002Z,981.90
2018-04-01T12:22:20.932Z,981.85
2018-04-01T12:23:20.855Z,981.87
2018-04-01T12:24:20.779Z,981.91
2018-04-01T12:25:20.704Z,981.90
2018-04-01T12:26:20.630Z,981.86
2018-04-01T12:27:20.555Z,981.87